N172SP KDAY-KILN
Flight info
| Callsign | N172SP |
|---|---|
| Flight time | 0h 25m |
| Altitude | 5000 |
| Route | KDAY KILN |
| Aircraft | C172/L-ICAO/C |
Departure
| Time | 2026-05-09 02:08 |
|---|---|
| Airport | James M. Cox Dayton International Airport (KDAY) |
Arrival
| Time | 2026-05-09 02:34 |
|---|---|
| Airport | Wilmington Airpark (KILN) |
| Time | Latitude | Longitude | Altitude | Speed | Heading |
|---|---|---|---|---|---|
| 2026-05-09 01:55 | 39.89937 | -84.20132 | 997 ft | 0 kts | 270° |
| 2026-05-09 02:03 | 39.89937 | -84.20136 | 997 ft | 2 kts | 266° |
| 2026-05-09 02:04 | 39.89945 | -84.20162 | 997 ft | 8 kts | 347° |
| 2026-05-09 02:04 | 39.90068 | -84.20164 | 998 ft | 6 kts | 355° |
| 2026-05-09 02:04 | 39.90071 | -84.20164 | 997 ft | 0 kts | 5° |
| 2026-05-09 02:04 | 39.90105 | -84.20165 | 997 ft | 3 kts | 358° |
| 2026-05-09 02:05 | 39.90107 | -84.20165 | 997 ft | 0 kts | 358° |
| 2026-05-09 02:07 | 39.90115 | -84.20166 | 997 ft | 5 kts | 352° |
| 2026-05-09 02:07 | 39.90167 | -84.20190 | 998 ft | 8 kts | 301° |
| 2026-05-09 02:07 | 39.90132 | -84.20286 | 997 ft | 26 kts | 234° |
| 2026-05-09 02:08 | 39.89895 | -84.20739 | 1091 ft | 64 kts | 235° |
| 2026-05-09 02:08 | 39.89638 | -84.21228 | 1335 ft | 65 kts | 230° |
| 2026-05-09 02:08 | 39.89253 | -84.21760 | 1547 ft | 71 kts | 229° |
| 2026-05-09 02:08 | 39.88888 | -84.22271 | 1822 ft | 68 kts | 230° |
| 2026-05-09 02:09 | 39.88534 | -84.22755 | 2109 ft | 65 kts | 230° |
| 2026-05-09 02:09 | 39.88196 | -84.23203 | 2389 ft | 62 kts | 230° |
| 2026-05-09 02:09 | 39.87875 | -84.23624 | 2659 ft | 57 kts | 229° |
| 2026-05-09 02:09 | 39.87572 | -84.24017 | 2911 ft | 56 kts | 228° |
| 2026-05-09 02:10 | 39.87217 | -84.24498 | 2979 ft | 76 kts | 230° |
| 2026-05-09 02:10 | 39.86830 | -84.24937 | 3366 ft | 62 kts | 208° |
| 2026-05-09 02:10 | 39.86342 | -84.24719 | 3628 ft | 82 kts | 151° |
| 2026-05-09 02:10 | 39.85999 | -84.23941 | 3843 ft | 94 kts | 128° |
| 2026-05-09 02:11 | 39.85702 | -84.23085 | 4067 ft | 95 kts | 129° |
| 2026-05-09 02:11 | 39.85409 | -84.22222 | 4300 ft | 94 kts | 127° |
| 2026-05-09 02:11 | 39.85099 | -84.21346 | 4508 ft | 96 kts | 129° |
| 2026-05-09 02:11 | 39.84793 | -84.20464 | 4716 ft | 97 kts | 128° |
| 2026-05-09 02:12 | 39.84488 | -84.19583 | 4940 ft | 99 kts | 127° |
| 2026-05-09 02:12 | 39.84143 | -84.18636 | 4968 ft | 110 kts | 128° |
| 2026-05-09 02:12 | 39.83751 | -84.17615 | 4976 ft | 118 kts | 129° |
| 2026-05-09 02:12 | 39.83337 | -84.16560 | 4974 ft | 123 kts | 129° |
| 2026-05-09 02:13 | 39.82908 | -84.15469 | 4972 ft | 125 kts | 130° |
| 2026-05-09 02:13 | 39.82393 | -84.14418 | 4969 ft | 123 kts | 139° |
| 2026-05-09 02:13 | 39.81791 | -84.13490 | 4965 ft | 119 kts | 147° |
| 2026-05-09 02:13 | 39.81143 | -84.12691 | 4963 ft | 116 kts | 154° |
| 2026-05-09 02:14 | 39.80462 | -84.11978 | 4967 ft | 114 kts | 157° |
| 2026-05-09 02:14 | 39.79777 | -84.11322 | 4968 ft | 113 kts | 159° |
| 2026-05-09 02:14 | 39.79083 | -84.10692 | 4970 ft | 112 kts | 160° |
| 2026-05-09 02:14 | 39.78402 | -84.09962 | 4968 ft | 124 kts | 139° |
| 2026-05-09 02:15 | 39.78015 | -84.08784 | 4974 ft | 130 kts | 119° |
| 2026-05-09 02:15 | 39.77687 | -84.07555 | 4973 ft | 130 kts | 118° |
| 2026-05-09 02:15 | 39.77366 | -84.06329 | 4971 ft | 131 kts | 117° |
| 2026-05-09 02:15 | 39.77037 | -84.05080 | 4971 ft | 131 kts | 118° |
| 2026-05-09 02:16 | 39.76708 | -84.03851 | 4971 ft | 131 kts | 118° |
| 2026-05-09 02:16 | 39.76379 | -84.02600 | 4973 ft | 131 kts | 117° |
| 2026-05-09 02:16 | 39.76064 | -84.01363 | 4975 ft | 131 kts | 117° |
| 2026-05-09 02:16 | 39.75758 | -84.00108 | 4976 ft | 131 kts | 118° |
| 2026-05-09 02:17 | 39.75445 | -83.98847 | 4977 ft | 130 kts | 117° |
| 2026-05-09 02:17 | 39.75132 | -83.97584 | 4973 ft | 131 kts | 117° |
| 2026-05-09 02:17 | 39.74825 | -83.96330 | 4975 ft | 131 kts | 116° |
| 2026-05-09 02:17 | 39.74516 | -83.95081 | 4974 ft | 131 kts | 117° |
| 2026-05-09 02:18 | 39.74227 | -83.93924 | 4974 ft | 130 kts | 117° |
| 2026-05-09 02:18 | 39.73916 | -83.92715 | 4977 ft | 130 kts | 117° |
| 2026-05-09 02:18 | 39.73609 | -83.91517 | 4977 ft | 131 kts | 117° |
| 2026-05-09 02:18 | 39.73309 | -83.90344 | 4977 ft | 131 kts | 117° |
| 2026-05-09 02:19 | 39.73013 | -83.89178 | 4974 ft | 131 kts | 117° |
| 2026-05-09 02:19 | 39.72725 | -83.88039 | 4977 ft | 131 kts | 117° |
| 2026-05-09 02:19 | 39.72437 | -83.86900 | 4972 ft | 131 kts | 118° |
| 2026-05-09 02:19 | 39.72138 | -83.85709 | 4934 ft | 131 kts | 118° |
| 2026-05-09 02:20 | 39.71862 | -83.84593 | 4796 ft | 125 kts | 118° |
| 2026-05-09 02:20 | 39.71608 | -83.83527 | 4671 ft | 123 kts | 118° |
| 2026-05-09 02:20 | 39.71360 | -83.82461 | 4548 ft | 121 kts | 118° |
| 2026-05-09 02:20 | 39.71120 | -83.81428 | 4430 ft | 120 kts | 117° |
| 2026-05-09 02:21 | 39.70836 | -83.80424 | 4315 ft | 115 kts | 131° |
| 2026-05-09 02:21 | 39.70448 | -83.79524 | 4200 ft | 115 kts | 133° |
| 2026-05-09 02:21 | 39.70042 | -83.78600 | 4086 ft | 118 kts | 132° |
| 2026-05-09 02:21 | 39.69628 | -83.77678 | 3981 ft | 119 kts | 131° |
| 2026-05-09 02:22 | 39.69217 | -83.76745 | 3898 ft | 119 kts | 131° |
| 2026-05-09 02:22 | 39.68799 | -83.75794 | 3772 ft | 121 kts | 131° |
| 2026-05-09 02:22 | 39.68380 | -83.74859 | 3702 ft | 119 kts | 131° |
| 2026-05-09 02:22 | 39.67957 | -83.73921 | 3556 ft | 120 kts | 132° |
| 2026-05-09 02:23 | 39.67527 | -83.72999 | 3432 ft | 119 kts | 134° |
| 2026-05-09 02:23 | 39.66983 | -83.72248 | 3314 ft | 110 kts | 151° |
| 2026-05-09 02:23 | 39.66401 | -83.71596 | 3179 ft | 110 kts | 151° |
| 2026-05-09 02:23 | 39.65818 | -83.70959 | 3051 ft | 110 kts | 153° |
| 2026-05-09 02:24 | 39.65226 | -83.70309 | 2975 ft | 109 kts | 152° |
| 2026-05-09 02:24 | 39.64648 | -83.69682 | 2965 ft | 107 kts | 153° |
| 2026-05-09 02:24 | 39.64080 | -83.69057 | 2967 ft | 106 kts | 152° |
| 2026-05-09 02:24 | 39.63510 | -83.68439 | 2968 ft | 106 kts | 152° |
| 2026-05-09 02:25 | 39.62891 | -83.68084 | 2971 ft | 92 kts | 185° |
| 2026-05-09 02:25 | 39.62259 | -83.68061 | 2971 ft | 90 kts | 191° |
| 2026-05-09 02:25 | 39.61627 | -83.68067 | 2960 ft | 88 kts | 191° |
| 2026-05-09 02:25 | 39.61012 | -83.68087 | 2967 ft | 88 kts | 192° |
| 2026-05-09 02:26 | 39.60397 | -83.68112 | 2972 ft | 89 kts | 192° |
| 2026-05-09 02:26 | 39.59763 | -83.68143 | 2918 ft | 93 kts | 193° |
| 2026-05-09 02:26 | 39.59097 | -83.68175 | 2792 ft | 96 kts | 192° |
| 2026-05-09 02:26 | 39.58428 | -83.68225 | 2662 ft | 98 kts | 192° |
| 2026-05-09 02:27 | 39.57758 | -83.68276 | 2538 ft | 96 kts | 192° |
| 2026-05-09 02:27 | 39.57080 | -83.68333 | 2412 ft | 96 kts | 192° |
| 2026-05-09 02:27 | 39.56431 | -83.68387 | 2372 ft | 91 kts | 192° |
| 2026-05-09 02:27 | 39.55797 | -83.68431 | 2374 ft | 92 kts | 193° |
| 2026-05-09 02:28 | 39.55171 | -83.68572 | 2372 ft | 89 kts | 205° |
| 2026-05-09 02:28 | 39.54599 | -83.68878 | 2372 ft | 88 kts | 211° |
| 2026-05-09 02:28 | 39.54060 | -83.69246 | 2370 ft | 87 kts | 214° |
| 2026-05-09 02:28 | 39.53537 | -83.69657 | 2369 ft | 87 kts | 217° |
| 2026-05-09 02:29 | 39.53025 | -83.70098 | 2378 ft | 86 kts | 219° |
| 2026-05-09 02:29 | 39.52532 | -83.70546 | 2381 ft | 86 kts | 220° |
| 2026-05-09 02:29 | 39.52043 | -83.71008 | 2376 ft | 86 kts | 220° |
| 2026-05-09 02:29 | 39.51557 | -83.71477 | 2379 ft | 87 kts | 221° |
| 2026-05-09 02:30 | 39.51071 | -83.71948 | 2373 ft | 86 kts | 220° |
| 2026-05-09 02:30 | 39.50592 | -83.72417 | 2379 ft | 87 kts | 220° |
| 2026-05-09 02:30 | 39.50110 | -83.72890 | 2378 ft | 86 kts | 221° |
| 2026-05-09 02:30 | 39.49627 | -83.73365 | 2368 ft | 87 kts | 221° |
| 2026-05-09 02:31 | 39.49131 | -83.73856 | 2270 ft | 92 kts | 221° |
| 2026-05-09 02:31 | 39.48633 | -83.74351 | 2159 ft | 86 kts | 223° |
| 2026-05-09 02:31 | 39.48167 | -83.74814 | 2054 ft | 83 kts | 221° |
| 2026-05-09 02:31 | 39.47715 | -83.75259 | 1941 ft | 80 kts | 223° |
| 2026-05-09 02:32 | 39.47283 | -83.75684 | 1840 ft | 76 kts | 222° |
| 2026-05-09 02:32 | 39.46856 | -83.76103 | 1739 ft | 76 kts | 222° |
| 2026-05-09 02:32 | 39.46429 | -83.76520 | 1632 ft | 76 kts | 221° |
| 2026-05-09 02:32 | 39.45993 | -83.76949 | 1533 ft | 78 kts | 221° |
| 2026-05-09 02:33 | 39.45558 | -83.77371 | 1436 ft | 70 kts | 223° |
| 2026-05-09 02:33 | 39.45149 | -83.77776 | 1330 ft | 70 kts | 223° |
| 2026-05-09 02:33 | 39.44765 | -83.78149 | 1246 ft | 63 kts | 220° |
| 2026-05-09 02:33 | 39.44395 | -83.78499 | 1173 ft | 57 kts | 222° |
| 2026-05-09 02:34 | 39.44073 | -83.78826 | 1067 ft | 48 kts | 218° |
| 2026-05-09 02:34 | 39.43947 | -83.78947 | 1065 ft | 5 kts | 218° |
| 2026-05-09 02:34 | 39.43928 | -83.78962 | 1064 ft | 0 kts | 187° |
| 2026-05-09 02:34 | 39.43926 | -83.78964 | 1064 ft | 0 kts | 196° |
| 2026-05-09 02:35 | 39.43914 | -83.78961 | 1064 ft | 2 kts | 207° |
| 2026-05-09 02:35 | 39.43871 | -83.78973 | 1064 ft | 6 kts | 130° |
| 2026-05-09 02:35 | 39.43814 | -83.78875 | 1066 ft | 8 kts | 122° |
| 2026-05-09 02:35 | 39.43787 | -83.78782 | 1066 ft | 12 kts | 74° |
| 2026-05-09 02:36 | 39.43867 | -83.78681 | 1067 ft | 16 kts | 37° |
| 2026-05-09 02:36 | 39.43862 | -83.78598 | 1068 ft | 7 kts | 92° |
| 2026-05-09 02:36 | 39.43866 | -83.78584 | 1068 ft | 0 kts | 310° |